Time;durP1;ratioP1;P1;durP2;ratioP2;P2;SDS_P1;SDS_P2;PMS_P1;PMS_P2;Temp;Humidity;BMP_temperature;BMP_pressure;BME280_temperature;BME280_humidity;BME280_pressure;Samples;Min_cycle;Max_cycle;Signal;HPM_P1;HPM_P2
2023/08/29 00:02:31;;;;;;;0.30;0.30;;;11.80;99.90;;;;;;5007319;28;20112;-76
2023/08/29 00:04:57;;;;;;;0.40;0.40;;;11.80;99.90;;;;;;5004901;28;20061;-75
2023/08/29 00:07:22;;;;;;;0.30;0.30;;;11.70;99.90;;;;;;5009260;28;20076;-76
2023/08/29 00:09:48;;;;;;;0.30;0.30;;;11.70;99.90;;;;;;5007072;28;20046;-76
2023/08/29 00:12:14;;;;;;;0.30;0.30;;;11.70;99.90;;;;;;5006919;28;20045;-76
2023/08/29 00:14:40;;;;;;;0.35;0.35;;;11.70;99.90;;;;;;5006114;28;20053;-76
2023/08/29 00:17:09;;;;;;;0.38;0.38;;;11.70;99.90;;;;;;5008597;28;20069;-76
2023/08/29 00:19:35;;;;;;;0.30;0.30;;;11.60;99.90;;;;;;5006373;28;20091;-76
2023/08/29 00:22:00;;;;;;;0.30;0.30;;;11.60;99.90;;;;;;5004106;28;20057;-76
2023/08/29 00:24:28;;;;;;;0.30;0.30;;;11.50;99.90;;;;;;5007499;28;20045;-77
2023/08/29 00:26:53;;;;;;;0.40;0.40;;;11.50;99.90;;;;;;5007730;28;20042;-76
2023/08/29 00:29:19;;;;;;;0.40;0.40;;;11.50;99.90;;;;;;5008009;28;20037;-76
2023/08/29 00:31:45;;;;;;;0.40;0.40;;;11.40;99.90;;;;;;5005481;28;20084;-76
2023/08/29 00:34:10;;;;;;;0.40;0.40;;;11.40;99.90;;;;;;5008768;28;20053;-76
2023/08/29 00:36:36;;;;;;;0.30;0.30;;;11.40;99.90;;;;;;5005985;28;20129;-76
2023/08/29 00:39:03;;;;;;;0.38;0.38;;;11.40;99.90;;;;;;5014459;28;20125;-76
2023/08/29 00:41:30;;;;;;;0.40;0.40;;;11.40;99.90;;;;;;5005650;28;20456;-76
2023/08/29 00:43:56;;;;;;;0.35;0.35;;;11.30;99.90;;;;;;5004774;28;20054;-76
2023/08/29 00:46:23;;;;;;;0.40;0.40;;;11.30;99.90;;;;;;5002551;28;20042;-76
2023/08/29 00:48:49;;;;;;;0.30;0.30;;;11.20;99.90;;;;;;5005948;28;20832;-76
2023/08/29 00:51:16;;;;;;;0.32;0.32;;;11.20;99.90;;;;;;5006355;28;20048;-76
2023/08/29 00:53:42;;;;;;;0.40;0.40;;;11.10;99.90;;;;;;5004139;28;20073;-75
2023/08/29 00:56:07;;;;;;;;;;;11.20;99.90;;;;;;5006385;28;20050;-75
2023/08/29 00:58:34;;;;;;;0.38;0.38;;;11.20;99.90;;;;;;5006015;28;19936;-75
2023/08/29 01:01:00;;;;;;;0.30;0.30;;;11.10;99.90;;;;;;5008613;28;20088;-76
2023/08/29 01:03:26;;;;;;;0.30;0.30;;;11.10;99.90;;;;;;5003798;28;20046;-76
2023/08/29 01:05:51;;;;;;;0.32;0.32;;;11.10;99.90;;;;;;5004209;28;20052;-76
2023/08/29 01:08:17;;;;;;;0.32;0.32;;;11.00;99.90;;;;;;5006650;28;20048;-76
2023/08/29 01:11:04;;;;;;;0.50;0.50;;;11.10;99.90;;;;;;5004576;28;20473;-76
2023/08/29 01:13:39;;;;;;;0.40;0.40;;;11.10;99.90;;;;;;5005300;28;20046;-76
2023/08/29 01:16:10;;;;;;;0.40;0.40;;;11.10;99.90;;;;;;5004997;28;20081;-76
2023/08/29 01:18:38;;;;;;;0.50;0.50;;;11.00;99.90;;;;;;5008993;28;20053;-76
2023/08/29 01:21:23;;;;;;;0.40;0.40;;;11.00;99.90;;;;;;5007556;28;20627;-75
2023/08/29 01:24:01;;;;;;;0.40;0.40;;;10.90;99.90;;;;;;5007693;28;20060;-76
2023/08/29 01:26:28;;;;;;;0.40;0.40;;;10.90;99.90;;;;;;5006152;28;20107;-76
2023/08/29 01:28:54;;;;;;;0.45;0.45;;;10.90;99.90;;;;;;5021296;28;20127;-76
2023/08/29 01:31:21;;;;;;;;;;;10.80;99.90;;;;;;5010281;28;20046;-76
2023/08/29 01:33:47;;;;;;;0.40;0.40;;;10.80;99.90;;;;;;5008072;28;19931;-76
2023/08/29 01:36:13;;;;;;;0.40;0.40;;;10.70;99.90;;;;;;5006862;28;20053;-76
2023/08/29 01:38:38;;;;;;;0.40;0.40;;;10.70;99.90;;;;;;5013680;28;20037;-76
2023/08/29 01:41:04;;;;;;;0.60;0.60;;;10.70;99.90;;;;;;5016338;28;20375;-75
2023/08/29 01:43:30;;;;;;;0.40;0.40;;;10.60;99.90;;;;;;5007728;28;20045;-76
2023/08/29 01:45:55;;;;;;;0.43;0.43;;;10.70;99.90;;;;;;5028141;28;20038;-77
2023/08/29 01:48:21;;;;;;;0.40;0.40;;;10.60;99.90;;;;;;5009574;28;20045;-76
2023/08/29 01:50:48;;;;;;;0.40;0.40;;;10.60;99.90;;;;;;5011322;28;20038;-76
2023/08/29 01:53:14;;;;;;;0.30;0.30;;;10.50;99.90;;;;;;5006935;28;20563;-75
2023/08/29 01:55:41;;;;;;;0.40;0.40;;;10.50;99.90;;;;;;5007978;28;20053;-75
2023/08/29 01:58:07;;;;;;;0.40;0.40;;;10.50;99.90;;;;;;5008967;28;20604;-75
2023/08/29 02:00:34;;;;;;;0.40;0.40;;;10.40;99.90;;;;;;5012990;28;20054;-77
2023/08/29 02:03:00;;;;;;;0.40;0.40;;;10.40;99.90;;;;;;5008410;28;20058;-76
2023/08/29 02:05:26;;;;;;;0.43;0.43;;;10.40;99.90;;;;;;5006964;28;20141;-76
2023/08/29 02:07:52;;;;;;;0.50;0.50;;;10.30;99.90;;;;;;5006502;28;20057;-75
2023/08/29 02:10:17;;;;;;;0.50;0.50;;;10.30;99.90;;;;;;5009608;28;20057;-75
2023/08/29 02:12:43;;;;;;;0.50;0.50;;;10.30;99.90;;;;;;5010272;28;20100;-75
2023/08/29 02:15:09;;;;;;;0.40;0.40;;;10.30;99.90;;;;;;5011202;28;20045;-76
2023/08/29 02:17:36;;;;;;;;;;;10.30;99.90;;;;;;5013170;28;20081;-75
2023/08/29 02:20:06;;;;;;;0.32;0.32;;;10.30;99.90;;;;;;5012088;28;20024;-75
2023/08/29 02:22:33;;;;;;;0.35;0.35;;;10.30;99.90;;;;;;5010274;28;20049;-76
2023/08/29 02:25:00;;;;;;;0.47;0.47;;;10.30;99.90;;;;;;5007160;28;20041;-76
2023/08/29 02:27:26;;;;;;;0.40;0.40;;;10.30;99.90;;;;;;5012020;28;20049;-76
2023/08/29 02:29:52;;;;;;;;;;;10.30;99.90;;;;;;5008371;28;20037;-76
2023/08/29 02:32:18;;;;;;;0.40;0.40;;;10.20;99.90;;;;;;5009717;28;19932;-76
2023/08/29 02:34:43;;;;;;;0.40;0.40;;;10.20;99.90;;;;;;5011814;28;20124;-76
2023/08/29 02:37:09;;;;;;;0.40;0.40;;;10.10;99.90;;;;;;5009417;28;20053;-76
2023/08/29 02:39:35;;;;;;;0.40;0.40;;;10.10;99.90;;;;;;5008101;28;20046;-76
2023/08/29 02:42:00;;;;;;;0.35;0.35;;;10.10;99.90;;;;;;5010010;28;20464;-76
2023/08/29 02:44:26;;;;;;;0.40;0.40;;;10.00;99.90;;;;;;5009096;28;20060;-76
2023/08/29 02:46:52;;;;;;;0.30;0.30;;;10.00;99.90;;;;;;5006929;28;20072;-76
2023/08/29 02:49:17;;;;;;;0.40;0.40;;;10.00;99.90;;;;;;5022620;28;20040;-76
2023/08/29 02:51:43;;;;;;;0.30;0.30;;;10.10;99.90;;;;;;5006004;28;20183;-76
2023/08/29 02:54:09;;;;;;;0.35;0.35;;;10.00;99.90;;;;;;5002957;28;20049;-76
2023/08/29 02:56:34;;;;;;;0.43;0.43;;;10.00;99.90;;;;;;5008425;28;20050;-76
2023/08/29 02:59:01;;;;;;;0.50;0.50;;;10.00;99.90;;;;;;5006191;28;20045;-76
2023/08/29 03:01:27;;;;;;;0.40;0.40;;;10.00;99.90;;;;;;5006744;28;20592;-75
2023/08/29 03:03:53;;;;;;;0.30;0.30;;;9.90;99.90;;;;;;5008521;28;20609;-76
2023/08/29 03:06:19;;;;;;;0.40;0.40;;;9.90;99.90;;;;;;5007358;28;20034;-77
2023/08/29 03:08:44;;;;;;;0.55;0.55;;;9.90;99.90;;;;;;5009882;28;20045;-76
2023/08/29 03:11:10;;;;;;;0.40;0.40;;;9.90;99.90;;;;;;5006402;28;20058;-75
2023/08/29 03:13:36;;;;;;;0.40;0.40;;;9.90;99.90;;;;;;5007012;28;20077;-75
2023/08/29 03:16:13;;;;;;;0.40;0.40;;;9.80;99.90;;;;;;5007812;28;20075;-76
2023/08/29 03:18:39;;;;;;;0.45;0.45;;;9.80;99.90;;;;;;5005314;28;20427;-75
2023/08/29 03:21:08;;;;;;;0.40;0.40;;;9.70;99.90;;;;;;5006263;28;20116;-75
2023/08/29 03:23:35;;;;;;;0.47;0.47;;;9.70;99.90;;;;;;5008883;28;20185;-76
2023/08/29 03:26:07;;;;;;;0.50;0.50;;;9.70;99.90;;;;;;5008402;28;20049;-75
2023/08/29 03:28:34;;;;;;;0.40;0.40;;;9.60;99.90;;;;;;5005866;28;20053;-75
2023/08/29 03:31:13;;;;;;;0.40;0.40;;;9.60;99.90;;;;;;5005633;28;20049;-75
2023/08/29 03:33:40;;;;;;;0.30;0.30;;;9.60;99.90;;;;;;5002703;28;20490;-76
2023/08/29 03:36:06;;;;;;;0.43;0.43;;;9.60;99.90;;;;;;5004509;28;20053;-76
2023/08/29 03:38:35;;;;;;;0.50;0.50;;;9.60;99.90;;;;;;5006618;28;20050;-76
2023/08/29 03:41:01;;;;;;;0.50;0.50;;;9.60;99.90;;;;;;5004024;28;20065;-76
2023/08/29 03:43:27;;;;;;;0.50;0.50;;;9.60;99.90;;;;;;5004337;28;20133;-75
2023/08/29 03:45:57;;;;;;;0.52;0.52;;;9.60;99.90;;;;;;5006667;28;20129;-75
2023/08/29 03:48:23;;;;;;;0.50;0.50;;;9.60;99.90;;;;;;5005176;28;20068;-76
2023/08/29 03:50:49;;;;;;;0.40;0.40;;;9.50;99.90;;;;;;5008296;28;20047;-76
2023/08/29 03:53:15;;;;;;;;;;;9.50;99.90;;;;;;5005652;28;20516;-76
2023/08/29 03:55:40;;;;;;;0.40;0.40;;;9.50;99.90;;;;;;5007395;28;19921;-76
2023/08/29 03:58:06;;;;;;;0.40;0.40;;;9.50;99.90;;;;;;5011676;28;20050;-77
2023/08/29 04:00:32;;;;;;;0.50;0.50;;;9.60;99.90;;;;;;5005821;28;20053;-76
2023/08/29 04:03:01;;;;;;;0.43;0.43;;;9.60;99.90;;;;;;5007017;28;20085;-75
2023/08/29 04:05:27;;;;;;;0.50;0.50;;;9.60;99.90;;;;;;5006818;28;20149;-75
2023/08/29 04:07:53;;;;;;;0.40;0.40;;;9.50;99.90;;;;;;5006480;28;20104;-75
2023/08/29 04:10:19;;;;;;;0.40;0.40;;;9.50;99.90;;;;;;5007402;28;20038;-75
2023/08/29 04:12:45;;;;;;;0.40;0.40;;;9.50;99.90;;;;;;5006991;28;20049;-75
2023/08/29 04:15:12;;;;;;;0.50;0.50;;;9.60;99.90;;;;;;5003249;28;20049;-76
2023/08/29 04:17:41;;;;;;;0.50;0.50;;;9.70;99.90;;;;;;5005045;28;20045;-76
2023/08/29 04:20:08;;;;;;;0.40;0.40;;;9.80;99.90;;;;;;5006742;28;20068;-76
2023/08/29 04:22:38;;;;;;;0.40;0.40;;;9.80;99.90;;;;;;5016116;28;20061;-76
2023/08/29 04:25:05;;;;;;;0.38;0.38;;;9.80;99.90;;;;;;5004550;28;20046;-75
2023/08/29 04:27:31;;;;;;;0.40;0.40;;;9.80;99.90;;;;;;5010912;28;20391;-75
2023/08/29 04:29:57;;;;;;;0.43;0.43;;;9.70;99.90;;;;;;5031618;28;20073;-76
2023/08/29 04:32:23;;;;;;;0.50;0.50;;;9.60;99.90;;;;;;5004924;28;21004;-75
2023/08/29 04:34:49;;;;;;;0.40;0.40;;;9.60;99.90;;;;;;5006745;28;20054;-75
2023/08/29 04:37:16;;;;;;;0.45;0.45;;;9.60;99.90;;;;;;5010736;28;20054;-75
2023/08/29 04:39:41;;;;;;;0.57;0.57;;;9.50;99.90;;;;;;5008833;28;20045;-75
2023/08/29 04:42:07;;;;;;;0.40;0.40;;;9.20;99.90;;;;;;5009472;28;20056;-75
2023/08/29 04:44:33;;;;;;;0.43;0.43;;;9.40;99.90;;;;;;5011570;28;20080;-75
2023/08/29 04:47:00;;;;;;;0.40;0.40;;;9.40;99.90;;;;;;5009033;28;20049;-75
2023/08/29 04:49:25;;;;;;;0.40;0.40;;;9.40;99.90;;;;;;5009752;28;20465;-76
2023/08/29 04:51:51;;;;;;;0.40;0.40;;;9.30;99.90;;;;;;5007192;28;20070;-76
2023/08/29 04:54:17;;;;;;;0.45;0.45;;;9.30;99.90;;;;;;5017929;28;20568;-76
2023/08/29 04:56:42;;;;;;;0.40;0.40;;;9.30;99.90;;;;;;5013867;28;20054;-76
2023/08/29 04:59:08;;;;;;;0.40;0.40;;;9.30;99.90;;;;;;5013982;28;20057;-77
2023/08/29 05:01:34;;;;;;;0.40;0.40;;;9.30;99.90;;;;;;5015912;28;20572;-77
2023/08/29 05:03:59;;;;;;;0.38;0.38;;;9.30;99.90;;;;;;5014298;28;20053;-75
2023/08/29 05:06:25;;;;;;;0.40;0.40;;;9.30;99.90;;;;;;5014446;28;20046;-76
2023/08/29 05:08:51;;;;;;;0.32;0.32;;;9.30;99.90;;;;;;5011495;28;20129;-77
2023/08/29 05:11:18;;;;;;;0.47;0.47;;;9.30;99.90;;;;;;5011166;28;20390;-76
2023/08/29 05:13:43;;;;;;;0.40;0.40;;;9.30;99.90;;;;;;5014144;28;20046;-76
2023/08/29 05:16:09;;;;;;;0.50;0.50;;;9.30;99.90;;;;;;5009257;28;20041;-76
2023/08/29 05:18:35;;;;;;;0.50;0.50;;;9.30;99.90;;;;;;5010309;28;20509;-76
2023/08/29 05:21:01;;;;;;;0.50;0.50;;;9.40;99.90;;;;;;5021984;28;20056;-77
2023/08/29 05:23:26;;;;;;;0.40;0.40;;;9.50;99.90;;;;;;4992538;28;20041;-76
2023/08/29 05:25:52;;;;;;;0.50;0.50;;;9.50;99.90;;;;;;5003814;28;20053;-77
2023/08/29 05:28:18;;;;;;;0.43;0.43;;;9.60;99.90;;;;;;5012577;28;20482;-76
2023/08/29 05:30:44;;;;;;;0.50;0.50;;;9.60;99.90;;;;;;5009285;28;20053;-76
2023/08/29 05:33:10;;;;;;;0.50;0.50;;;9.70;99.90;;;;;;5015561;28;20821;-75
2023/08/29 05:35:36;;;;;;;0.40;0.40;;;9.70;99.90;;;;;;5014371;28;20037;-76
2023/08/29 05:38:02;;;;;;;0.47;0.47;;;9.70;99.90;;;;;;5013315;28;20046;-77
2023/08/29 05:40:28;;;;;;;0.30;0.30;;;9.80;99.90;;;;;;5012478;28;20048;-76
2023/08/29 05:42:54;;;;;;;0.40;0.40;;;9.80;99.90;;;;;;5015635;28;20041;-75
2023/08/29 05:45:19;;;;;;;0.50;0.50;;;9.90;99.90;;;;;;5011415;28;20834;-75
2023/08/29 05:47:45;;;;;;;0.50;0.50;;;9.90;99.90;;;;;;5038049;28;20053;-76
2023/08/29 05:50:11;;;;;;;0.35;0.35;;;10.00;99.90;;;;;;5011593;28;20041;-75
2023/08/29 05:52:36;;;;;;;0.40;0.40;;;10.10;99.90;;;;;;5013310;28;20080;-76
2023/08/29 05:55:02;;;;;;;0.30;0.30;;;10.20;99.90;;;;;;5012449;28;20046;-75
2023/08/29 05:57:28;;;;;;;0.40;0.40;;;10.30;99.90;;;;;;5017085;28;20057;-76
2023/08/29 05:59:54;;;;;;;0.45;0.45;;;10.50;99.90;;;;;;5012046;28;20057;-76
2023/08/29 06:02:20;;;;;;;0.38;0.38;;;10.70;99.90;;;;;;5008760;28;20050;-75
2023/08/29 06:04:46;;;;;;;0.40;0.40;;;10.80;99.90;;;;;;5009134;28;20050;-75
2023/08/29 06:07:15;;;;;;;0.32;0.32;;;11.00;99.90;;;;;;5016630;28;20041;-76
2023/08/29 06:09:40;;;;;;;0.40;0.40;;;11.10;99.90;;;;;;5016600;28;20038;-76
2023/08/29 06:12:06;;;;;;;0.50;0.50;;;11.30;99.90;;;;;;5011752;28;20068;-76
2023/08/29 06:14:32;;;;;;;0.38;0.38;;;11.50;99.90;;;;;;5016712;28;20041;-76
2023/08/29 06:16:58;;;;;;;0.30;0.30;;;11.70;99.90;;;;;;5015450;28;20046;-76
2023/08/29 06:19:24;;;;;;;1.00;1.00;;;11.80;99.90;;;;;;5009303;28;20140;-76
2023/08/29 06:21:50;;;;;;;0.55;0.55;;;12.00;99.90;;;;;;5004586;28;20528;-76
2023/08/29 06:24:15;;;;;;;0.40;0.40;;;12.20;99.90;;;;;;5014455;28;20383;-77
2023/08/29 06:26:41;;;;;;;0.50;0.50;;;12.30;99.90;;;;;;5016434;28;20133;-76
2023/08/29 06:29:07;;;;;;;0.40;0.40;;;12.50;99.90;;;;;;5013626;28;20045;-77
2023/08/29 06:31:33;;;;;;;0.40;0.40;;;12.60;99.90;;;;;;5010000;28;20575;-77
2023/08/29 06:33:59;;;;;;;0.68;0.68;;;12.80;99.90;;;;;;5016483;28;20095;-77
2023/08/29 06:36:29;;;;;;;0.70;0.70;;;12.90;99.90;;;;;;5014345;28;20078;-76
2023/08/29 06:38:54;;;;;;;0.40;0.40;;;13.00;99.90;;;;;;5004055;28;20053;-76
2023/08/29 06:41:20;;;;;;;0.30;0.30;;;13.20;99.90;;;;;;5013834;28;20037;-76
2023/08/29 06:43:46;;;;;;;0.55;0.55;;;13.30;99.90;;;;;;5015170;28;20384;-77
2023/08/29 06:46:13;;;;;;;0.30;0.30;;;13.50;99.90;;;;;;5016319;28;20926;-76
2023/08/29 06:48:40;;;;;;;0.40;0.40;;;13.60;99.90;;;;;;5017543;28;20041;-75
2023/08/29 06:51:07;;;;;;;0.30;0.30;;;13.80;99.90;;;;;;5007894;28;20115;-76
2023/08/29 06:53:33;;;;;;;0.40;0.40;;;13.90;99.90;;;;;;5005444;28;20045;-76
2023/08/29 06:55:58;;;;;;;0.40;0.40;;;14.10;99.90;;;;;;5009395;28;20387;-76
2023/08/29 06:58:25;;;;;;;0.40;0.40;;;14.20;99.90;;;;;;5016236;28;20091;-75
2023/08/29 07:00:52;;;;;;;0.57;0.57;;;14.40;99.90;;;;;;5005598;28;20042;-77
2023/08/29 07:03:19;;;;;;;0.30;0.30;;;14.50;99.90;;;;;;5001944;28;20052;-76
2023/08/29 07:05:45;;;;;;;0.38;0.38;;;14.70;99.90;;;;;;5006686;28;20045;-77
2023/08/29 07:08:10;;;;;;;0.30;0.30;;;14.80;99.90;;;;;;5005264;28;20798;-76
2023/08/29 07:10:36;;;;;;;0.28;0.28;;;15.00;99.90;;;;;;5002522;28;20156;-74
2023/08/29 07:13:03;;;;;;;;;;;15.20;99.90;;;;;;5005102;28;20054;-75
2023/08/29 07:15:30;;;;;;;0.40;0.40;;;15.30;99.90;;;;;;5002028;28;20005;-76
2023/08/29 07:17:55;;;;;;;0.50;0.50;;;15.50;99.90;;;;;;5006198;28;20423;-75
2023/08/29 07:20:21;;;;;;;0.30;0.30;;;15.70;99.90;;;;;;5007376;28;20168;-75
2023/08/29 07:22:47;;;;;;;0.40;0.40;;;15.80;99.90;;;;;;5003895;28;20141;-77
2023/08/29 07:25:13;;;;;;;0.22;0.22;;;15.90;99.90;;;;;;5006142;28;20120;-76
2023/08/29 07:27:39;;;;;;;;;;;16.00;99.90;;;;;;5004939;28;20504;-75
2023/08/29 07:30:05;;;;;;;0.30;0.30;;;16.10;99.90;;;;;;5004598;28;19941;-75
2023/08/29 07:32:31;;;;;;;0.40;0.40;;;16.20;99.90;;;;;;5006218;28;20049;-76
2023/08/29 07:34:57;;;;;;;0.40;0.40;;;16.20;99.90;;;;;;5006862;28;20688;-76
2023/08/29 07:37:23;;;;;;;;;;;16.30;99.90;;;;;;5006118;28;20081;-76
2023/08/29 07:39:49;;;;;;;0.30;0.30;;;16.30;99.90;;;;;;5007020;28;19993;-76
2023/08/29 07:42:16;;;;;;;0.50;0.50;;;16.40;99.90;;;;;;5012074;28;20095;-76
2023/08/29 07:44:43;;;;;;;0.55;0.55;;;16.50;99.90;;;;;;5006064;28;20134;-76
2023/08/29 07:47:09;;;;;;;0.35;0.35;;;16.60;99.90;;;;;;5000816;28;20285;-75
2023/08/29 07:49:34;;;;;;;;;;;16.60;99.90;;;;;;5020383;28;20042;-76
2023/08/29 07:52:00;;;;;;;0.40;0.40;;;16.60;99.90;;;;;;4998299;28;19932;-75
2023/08/29 07:54:26;;;;;;;0.50;0.50;;;16.70;99.90;;;;;;4996057;28;20107;-78
2023/08/29 07:56:53;;;;;;;;;;;16.70;99.90;;;;;;5002477;28;20049;-75
2023/08/29 07:59:19;;;;;;;0.50;0.50;;;16.80;99.90;;;;;;5007149;28;20332;-75
2023/08/29 08:01:45;;;;;;;0.30;0.30;;;16.90;99.90;;;;;;5005513;28;20640;-75
2023/08/29 08:04:11;;;;;;;0.20;0.20;;;16.90;99.90;;;;;;5006889;28;20049;-75
2023/08/29 08:06:36;;;;;;;0.30;0.30;;;16.90;99.90;;;;;;5004331;28;20052;-75
2023/08/29 08:09:04;;;;;;;;;;;17.00;99.90;;;;;;5003131;28;20103;-75
2023/08/29 08:11:30;;;;;;;0.70;0.70;;;17.10;99.90;;;;;;5002501;28;20297;-75
2023/08/29 08:13:56;;;;;;;;;;;17.20;99.90;;;;;;5003393;28;20079;-74
2023/08/29 08:16:22;;;;;;;0.50;0.50;;;17.20;99.90;;;;;;4996532;28;20392;-74
2023/08/29 08:18:47;;;;;;;;;;;17.30;99.90;;;;;;4993629;28;20095;-74
2023/08/29 08:21:13;;;;;;;0.30;0.30;;;17.40;99.90;;;;;;4992569;28;19963;-75
2023/08/29 08:23:38;;;;;;;;;;;17.50;99.90;;;;;;4986210;28;20827;-75
2023/08/29 08:26:04;;;;;;;0.70;0.70;;;17.70;99.90;;;;;;4989838;28;19929;-74
2023/08/29 08:28:30;;;;;;;;;;;17.80;99.90;;;;;;4989879;28;20128;-74
2023/08/29 08:30:55;;;;;;;0.30;0.30;;;17.90;99.90;;;;;;4991790;28;20028;-76
2023/08/29 08:33:21;;;;;;;;;;;18.00;99.90;;;;;;5004755;28;20517;-74
2023/08/29 08:35:47;;;;;;;0.32;0.32;;;18.10;99.90;;;;;;5011033;28;20137;-75
2023/08/29 08:38:12;;;;;;;;;;;18.20;99.90;;;;;;5009473;28;20042;-74
2023/08/29 08:40:41;;;;;;;0.30;0.30;;;18.20;99.90;;;;;;5009292;28;19967;-75
2023/08/29 08:43:09;;;;;;;0.30;0.30;;;18.30;99.90;;;;;;5008067;28;20045;-75
2023/08/29 08:45:39;;;;;;;0.63;0.63;;;18.50;99.90;;;;;;5003241;28;20038;-75
2023/08/29 08:48:05;;;;;;;0.40;0.40;;;18.70;99.90;;;;;;5002489;28;20913;-75
2023/08/29 08:50:32;;;;;;;0.30;0.30;;;18.90;99.90;;;;;;5003366;28;20058;-75
2023/08/29 08:52:59;;;;;;;0.38;0.38;;;19.10;99.90;;;;;;5007271;28;20064;-76
2023/08/29 08:55:26;;;;;;;0.30;0.30;;;19.20;99.90;;;;;;5009142;28;20065;-76
2023/08/29 08:57:52;;;;;;;0.32;0.32;;;19.00;99.90;;;;;;5007746;28;20695;-75
2023/08/29 09:00:19;;;;;;;0.40;0.40;;;18.90;99.90;;;;;;5023087;28;20042;-75
2023/08/29 09:02:46;;;;;;;0.30;0.30;;;18.90;99.90;;;;;;5007926;28;20167;-74
2023/08/29 09:05:11;;;;;;;0.30;0.30;;;19.40;99.90;;;;;;5003842;28;20045;-75
2023/08/29 09:07:38;;;;;;;;;;;18.80;99.90;;;;;;5008561;28;20045;-76
2023/08/29 09:10:11;;;;;;;0.20;0.20;;;18.90;99.90;;;;;;5006142;28;19921;-76
2023/08/29 09:12:57;;;;;;;0.30;0.30;;;18.90;99.90;;;;;;5003831;28;20049;-75
2023/08/29 09:15:26;;;;;;;0.40;0.40;;;19.10;99.90;;;;;;5006969;28;20050;-75
2023/08/29 09:17:53;;;;;;;0.40;0.40;;;19.30;99.90;;;;;;5003717;28;20088;-76
2023/08/29 09:20:20;;;;;;;0.20;0.20;;;19.30;99.90;;;;;;5009575;28;20060;-75
2023/08/29 09:22:47;;;;;;;0.20;0.20;;;19.20;99.90;;;;;;5008438;28;20060;-75
2023/08/29 09:25:14;;;;;;;0.25;0.25;;;19.10;99.90;;;;;;5008822;28;20053;-75
2023/08/29 09:27:47;;;;;;;0.20;0.20;;;19.20;99.90;;;;;;5009422;28;20108;-76
2023/08/29 09:30:15;;;;;;;0.40;0.40;;;19.30;99.90;;;;;;5003168;28;20164;-76
2023/08/29 09:32:45;;;;;;;0.30;0.30;;;19.50;99.90;;;;;;5008001;28;20085;-75
2023/08/29 09:35:27;;;;;;;0.35;0.35;;;19.80;99.90;;;;;;5013085;28;20041;-75
2023/08/29 09:37:57;;;;;;;0.20;0.20;;;19.90;99.90;;;;;;5011978;28;20137;-75
2023/08/29 09:40:23;;;;;;;0.22;0.22;;;20.10;99.90;;;;;;5008402;28;20502;-76
2023/08/29 09:43:06;;;;;;;0.50;0.50;;;20.10;99.90;;;;;;5001227;28;20521;-74
2023/08/29 09:45:33;;;;;;;0.40;0.40;;;20.00;99.90;;;;;;5010950;28;20060;-76
2023/08/29 09:48:03;;;;;;;0.30;0.30;;;19.80;99.90;;;;;;5010048;28;20836;-75
2023/08/29 09:50:29;;;;;;;0.20;0.20;;;20.00;99.90;;;;;;5005462;28;20096;-76
2023/08/29 09:52:57;;;;;;;0.20;0.20;;;19.80;99.90;;;;;;5006224;28;20490;-76
2023/08/29 09:55:25;;;;;;;0.60;0.60;;;19.90;99.90;;;;;;5008390;28;20063;-75
2023/08/29 09:57:53;;;;;;;0.30;0.30;;;20.10;99.90;;;;;;5001883;28;20050;-74
2023/08/29 10:00:20;;;;;;;0.20;0.20;;;20.10;99.90;;;;;;5006186;28;20041;-76
2023/08/29 10:02:47;;;;;;;0.55;0.55;;;20.20;99.90;;;;;;5002774;28;20092;-75
2023/08/29 10:05:15;;;;;;;1.88;0.43;;;20.30;99.90;;;;;;5006981;28;20057;-76
2023/08/29 10:07:45;;;;;;;0.75;0.75;;;20.20;99.90;;;;;;5005025;28;20167;-77
2023/08/29 10:10:11;;;;;;;0.30;0.30;;;20.30;99.90;;;;;;5002828;28;20069;-77
2023/08/29 10:12:38;;;;;;;0.25;0.25;;;20.30;99.90;;;;;;5009217;28;20041;-74
2023/08/29 10:15:05;;;;;;;0.32;0.32;;;20.40;99.90;;;;;;5007270;28;20130;-75
2023/08/29 10:17:35;;;;;;;0.20;0.20;;;20.50;99.90;;;;;;5005906;28;20131;-75
2023/08/29 10:20:09;;;;;;;0.32;0.32;;;20.50;99.90;;;;;;5007824;28;20061;-75
2023/08/29 10:22:37;;;;;;;0.60;0.60;;;20.50;99.90;;;;;;5004645;28;20045;-75
2023/08/29 10:25:04;;;;;;;0.40;0.40;;;20.70;99.90;;;;;;5011290;28;20556;-75
2023/08/29 10:27:31;;;;;;;0.63;0.63;;;20.70;99.90;;;;;;5005697;28;20108;-76
2023/08/29 10:29:57;;;;;;;0.30;0.30;;;20.70;99.90;;;;;;5003116;28;20641;-76
2023/08/29 10:32:24;;;;;;;0.22;0.22;;;20.70;99.90;;;;;;4997152;28;20053;-76
2023/08/29 10:34:51;;;;;;;0.30;0.30;;;20.70;99.90;;;;;;5004841;28;20477;-77
2023/08/29 10:37:20;;;;;;;0.30;0.30;;;20.60;99.90;;;;;;5004929;28;20359;-76
2023/08/29 10:39:49;;;;;;;0.30;0.30;;;20.60;99.90;;;;;;5004301;28;20061;-76
2023/08/29 10:42:15;;;;;;;0.35;0.35;;;20.70;99.90;;;;;;5007461;28;20045;-76
2023/08/29 10:44:43;;;;;;;0.30;0.30;;;20.70;99.90;;;;;;5015478;28;20402;-75
2023/08/29 10:47:31;;;;;;;0.75;0.75;;;20.90;99.90;;;;;;5015006;28;20050;-75
2023/08/29 10:49:58;;;;;;;0.60;0.60;;;20.90;99.90;;;;;;5007549;28;20049;-76
2023/08/29 10:52:35;;;;;;;1.65;0.90;;;20.90;99.90;;;;;;5016804;28;20046;-75
2023/08/29 10:55:09;;;;;;;0.30;0.30;;;21.00;99.90;;;;;;5015929;28;20056;-75
2023/08/29 10:57:34;;;;;;;0.20;0.20;;;21.00;99.90;;;;;;5013711;28;20050;-76
2023/08/29 11:00:00;;;;;;;0.20;0.20;;;21.20;99.90;;;;;;5010949;28;20422;-75
2023/08/29 11:02:27;;;;;;;;;;;21.60;99.90;;;;;;5017767;28;20718;-75
2023/08/29 11:05:10;;;;;;;0.20;0.20;;;21.90;99.90;;;;;;5007906;28;20229;-76
2023/08/29 11:07:36;;;;;;;0.30;0.30;;;22.00;99.90;;;;;;5005927;28;20129;-76
2023/08/29 11:10:21;;;;;;;0.30;0.30;;;21.90;99.90;;;;;;5004727;28;20069;-76
2023/08/29 11:13:06;;;;;;;0.35;0.35;;;22.00;99.90;;;;;;5003425;28;20056;-74
2023/08/29 11:15:49;;;;;;;0.30;0.30;;;22.30;99.90;;;;;;5004058;28;20045;-75
2023/08/29 11:18:24;;;;;;;0.20;0.20;;;22.40;99.90;;;;;;5004346;28;20092;-76
2023/08/29 11:20:51;;;;;;;0.20;0.20;;;22.30;99.90;;;;;;5010176;28;20778;-76
2023/08/29 11:23:17;;;;;;;1.17;0.63;;;22.30;99.90;;;;;;5008471;28;20053;-76
2023/08/29 11:25:42;;;;;;;0.30;0.30;;;22.40;99.90;;;;;;5008609;28;20037;-76
2023/08/29 11:28:08;;;;;;;0.20;0.20;;;22.40;99.90;;;;;;5009109;28;20057;-75
2023/08/29 11:30:34;;;;;;;0.30;0.30;;;22.40;99.90;;;;;;5009051;28;20052;-75
2023/08/29 11:33:03;;;;;;;0.20;0.20;;;22.20;99.90;;;;;;5008761;28;20502;-75
2023/08/29 11:35:29;;;;;;;0.30;0.30;;;22.10;99.90;;;;;;5009493;28;20132;-75
2023/08/29 11:37:55;;;;;;;0.22;0.22;;;22.20;99.90;;;;;;5009270;28;20046;-75
2023/08/29 11:40:21;;;;;;;0.38;0.38;;;22.30;99.90;;;;;;5009117;28;20042;-75
2023/08/29 11:42:47;;;;;;;0.30;0.30;;;22.40;99.90;;;;;;5009695;28;20045;-75
2023/08/29 11:45:14;;;;;;;0.50;0.50;;;22.50;99.90;;;;;;5009080;28;20037;-75
2023/08/29 11:47:41;;;;;;;0.30;0.30;;;22.50;99.90;;;;;;5009611;28;20050;-75
2023/08/29 11:50:07;;;;;;;0.55;0.55;;;22.50;99.90;;;;;;5009106;28;20033;-75
2023/08/29 11:52:33;;;;;;;0.30;0.30;;;22.40;99.90;;;;;;5008625;28;20139;-75
2023/08/29 11:55:01;;;;;;;0.28;0.28;;;22.30;99.90;;;;;;5008860;28;20077;-75
2023/08/29 11:57:30;;;;;;;0.32;0.32;;;22.30;99.90;;;;;;5009521;28;20414;-75
2023/08/29 11:59:57;;;;;;;0.30;0.30;;;22.20;99.90;;;;;;5008319;28;20077;-75
2023/08/29 12:02:23;;;;;;;0.30;0.30;;;22.20;99.90;;;;;;5008337;28;20050;-76
2023/08/29 12:04:55;;;;;;;0.45;0.45;;;22.20;99.90;;;;;;5009418;28;20060;-76
2023/08/29 12:07:21;;;;;;;0.60;0.60;;;22.10;99.90;;;;;;5005698;28;20149;-76
2023/08/29 12:09:47;;;;;;;0.45;0.45;;;22.00;99.90;;;;;;5008896;28;20460;-76
2023/08/29 12:12:35;;;;;;;0.20;0.20;;;21.90;99.90;;;;;;5008378;28;20227;-75
2023/08/29 12:15:10;;;;;;;0.40;0.35;;;21.90;99.90;;;;;;5008448;28;20084;-77
2023/08/29 12:17:41;;;;;;;0.50;0.50;;;21.80;99.90;;;;;;5001704;28;20510;-75
2023/08/29 12:20:16;;;;;;;0.20;0.20;;;21.80;99.90;;;;;;5023618;28;20081;-75
2023/08/29 12:22:50;;;;;;;0.52;0.52;;;21.70;99.90;;;;;;5009612;28;20457;-75
2023/08/29 12:25:18;;;;;;;0.55;0.55;;;21.80;99.90;;;;;;5007998;28;20049;-75
2023/08/29 12:27:44;;;;;;;0.20;0.20;;;21.70;99.90;;;;;;5008794;28;20050;-75
2023/08/29 12:30:13;;;;;;;0.20;0.20;;;21.80;99.90;;;;;;5008512;28;20045;-76
2023/08/29 12:32:39;;;;;;;0.20;0.20;;;21.90;99.90;;;;;;5031193;28;20061;-76
2023/08/29 12:35:06;;;;;;;0.65;0.65;;;22.00;99.90;;;;;;5008615;28;20120;-75
2023/08/29 12:37:32;;;;;;;0.52;0.52;;;22.10;99.90;;;;;;5007740;28;20057;-75
2023/08/29 12:39:58;;;;;;;0.35;0.35;;;22.20;99.90;;;;;;5008790;28;20059;-76
2023/08/29 12:42:24;;;;;;;0.22;0.22;;;22.20;99.90;;;;;;5008824;28;20383;-76
2023/08/29 12:44:50;;;;;;;0.20;0.20;;;22.20;99.90;;;;;;5009135;28;20046;-75
2023/08/29 12:47:16;;;;;;;0.20;0.20;;;22.20;99.90;;;;;;5008651;28;20042;-75
2023/08/29 12:49:41;;;;;;;0.32;0.32;;;22.20;99.90;;;;;;5008769;28;20069;-75
2023/08/29 12:52:07;;;;;;;0.20;0.20;;;22.10;99.90;;;;;;5008329;28;20410;-75
2023/08/29 12:54:35;;;;;;;0.30;0.30;;;22.10;99.90;;;;;;5008820;28;20058;-76